Gimpo International Airport
RKSS : now visible

Airfield :











YOU CAN JOIN US ON...

 
LOGIN :

Register | Disclaimer

   EN    FR    IT 

 









Legend :    VFR   Marginal VFR   IFR   Intensive IFR   Very Intensive IFR
Visi :
Ceiling :
>= 8 km
>= 3000ft
5 to 8 km
1000 to 3000 ft
1500m to 5 km
500 to 1000 ft
800 to 1500m
200 to 500 ft
< 800m
< 200 ft
Symbols :   Thunderstorms  Fog  Heavy snow  Heavy precipitations  Wind > 20 kt






- Airport Elevation : 58 ft
- IATA code : GMP


RKSS - Gimpo International

CURRENT METAR :
  • 261400Z 26006KT 230V290 6000 SCT008 BKN025 OVC080 17/17 Q1002 NOSIG

EXPIRED METARs :
  • 261300Z 26006KT 220V320 9999 SCT005 BKN025 OVC080 18/17 Q1002 NOSIG
  • 261200Z 27013KT 230V290 6000 -RA SCT005 BKN020 OVC080 18/18 Q1002 NOSIG
  • 261116Z 23011KT 200V260 4000 -DZ BR SCT005 BKN020 OVC080 18/18 Q1001 NOSIG
  • 261100Z 22012KT 190V250 7000 SCT005 BKN020 OVC080 19/19 Q1001 NOSIG
  • 261000Z 21011KT 9000 SCT006 BKN020 OVC080 19/19 Q1001 NOSIG

TAF AMD TAF RKSS
Valid from the 26 at 12:00 until the 27 at 18:00 UTC


261200Z 2612/2718 24010G20KT 6000 -DZ SCT005 BKN025 OVC080 TN14/2621Z TX23/2706Z
BECMG 2613/2614 NSW
BECMG 2615/2617 30008KT CAVOK
BECMG 2701/2703 32015G30KT
BECMG 2710/2712 27008KT
RKRR FIR / Asia



MET'MAP, your aeronautical weather chart ! - Copyright ORBIFLY December 2007 - Disclaimer

ORBIFLY MET'MAP TEAM :

Programming & Development : Alexandra Zaïnal
Original concept : Baudouin d'Aumeries
Technical & hardware support : Manuel Goepfert
Assistance : Marc-Olivier Méhu




SOURCES & CREDITS :

   NOAA       Earth
Advisory